This is the latest recevied weather packets stored in our database for station/object MB7UKB-10. If no packets are shown the sender has not sent any weather packets the latest 10 day(s).
| Time | Temp. | Humidity | Pressure | Rain* | Wind** | Luminosity | Snow |
|---|---|---|---|---|---|---|---|
| 1777554745 | 22.22° C | 32% | 1020.4 hPa | 0 mm | - | - | - |
| 1777552944 | 22.22° C | 22% | 1020.4 hPa | 0 mm | - | - | - |
| 1777551145 | 22.22° C | 21% | 1020.7 hPa | 0 mm | - | - | - |
| 1777549344 | 22.22° C | 26% | 1021.1 hPa | 0 mm | - | - | - |
| 1777547544 | 21.11° C | 26% | 1021.2 hPa | 0 mm | - | - | - |
| 1777545745 | 20° C | 33% | 1021.5 hPa | 0 mm | - | - | - |
| 1777543944 | 19.44° C | 33% | 1021.6 hPa | 0 mm | - | - | - |
| 1777542144 | 18.33° C | 37% | 1021.7 hPa | 0 mm | - | - | - |
| 1777540344 | 17.22° C | 38% | 1021.9 hPa | 0 mm | - | - | - |
| 1777538544 | 16.67° C | 39% | 1022.1 hPa | 0 mm | - | - | - |
| 1777536744 | 15.56° C | 42% | 1022.2 hPa | 0 mm | - | - | - |
| 1777534944 | 15° C | 45% | 1022.2 hPa | 0 mm | - | - | - |
| 1777533144 | 13.89° C | 48% | 1022.4 hPa | 0 mm | - | - | - |
| 1777531344 | 12.22° C | 59% | 1022.3 hPa | 0 mm | - | - | - |
| 1777529544 | 10.56° C | 67% | 1022.6 hPa | 0 mm | - | - | - |
| 1777527744 | 8.33° C | 74% | 1022.4 hPa | 0 mm | - | - | - |
| 1777525945 | 7.78° C | 76% | 1022.6 hPa | 0 mm | - | - | - |
| 1777524144 | 7.78° C | 76% | 1022.6 hPa | 0 mm | - | - | - |
| 1777522344 | 7.78° C | 75% | 1022.6 hPa | 0 mm | - | - | - |
| 1777520544 | 8.33° C | 74% | 1022.6 hPa | 0 mm | - | - | - |
| 1777518745 | 8.33° C | 73% | 1022.6 hPa | 0 mm | - | - | - |
| 1777516944 | 8.33° C | 72% | 1022.6 hPa | 0 mm | - | - | - |
| 1777515144 | 8.89° C | 71% | 1022.5 hPa | 0 mm | - | - | - |
| 1777513344 | 8.89° C | 70% | 1022.5 hPa | 0 mm | - | - | - |
| 1777511544 | 8.89° C | 68% | 1022.9 hPa | 0 mm | - | - | - |
* Rain latest hour (hover to see other rain measurements)
** Current wind speed in m/s (hover to see current wind gust speed)